Time;durP1;ratioP1;P1;durP2;ratioP2;P2;SDS_P1;SDS_P2;PMS_P1;PMS_P2;Temp;Humidity;BMP_temperature;BMP_pressure;BME280_temperature;BME280_humidity;BME280_pressure;Samples;Min_cycle;Max_cycle;Signal;HPM_P1;HPM_P2
2023/03/23 00:02:01;;;;;;;12.43;4.63;;;10.10;99.90;;;;;;5050283;28;20035;-74
2023/03/23 00:04:29;;;;;;;6.50;4.10;;;10.00;99.90;;;;;;5053878;28;20033;-72
2023/03/23 00:06:54;;;;;;;5.47;3.17;;;9.90;99.90;;;;;;5044945;28;20067;-70
2023/03/23 00:09:23;;;;;;;8.07;3.75;;;10.00;99.90;;;;;;5034928;28;20040;-75
2023/03/23 00:11:50;;;;;;;6.47;3.20;;;10.10;99.90;;;;;;5046789;28;20028;-67
2023/03/23 00:14:22;;;;;;;6.50;2.60;;;10.30;99.90;;;;;;5049178;28;20028;-74
2023/03/23 00:16:48;;;;;;;7.38;3.05;;;10.60;99.90;;;;;;5052367;28;20083;-74
2023/03/23 00:19:15;;;;;;;5.70;2.85;;;10.80;99.90;;;;;;5055546;28;20028;-74
2023/03/23 00:21:42;;;;;;;5.47;2.45;;;11.00;99.90;;;;;;5058116;28;20048;-73
2023/03/23 00:24:15;;;;;;;6.30;2.60;;;11.20;99.90;;;;;;5042389;28;20367;-71
2023/03/23 00:26:43;;;;;;;5.20;2.63;;;11.30;99.90;;;;;;5050367;28;20036;-74
2023/03/23 00:29:13;;;;;;;4.40;2.75;;;11.30;99.90;;;;;;5057963;28;20033;-74
2023/03/23 00:31:39;;;;;;;4.68;2.55;;;11.40;99.90;;;;;;5042403;28;20373;-73
2023/03/23 00:34:05;;;;;;;4.47;2.50;;;11.40;99.90;;;;;;5060554;28;20032;-74
2023/03/23 00:36:34;;;;;;;4.65;2.30;;;11.30;99.90;;;;;;5059356;28;20051;-74
2023/03/23 00:39:03;;;;;;;5.45;2.60;;;11.30;99.90;;;;;;5047826;28;20029;-75
2023/03/23 00:41:30;;;;;;;4.63;2.25;;;11.30;99.90;;;;;;5061321;28;20020;-74
2023/03/23 00:43:57;;;;;;;5.95;2.42;;;11.40;99.90;;;;;;5052170;28;20103;-73
2023/03/23 00:46:24;;;;;;;4.75;2.50;;;11.50;99.90;;;;;;5061732;28;20037;-74
2023/03/23 00:48:51;;;;;;;4.28;2.38;;;11.50;99.90;;;;;;5048488;28;20392;-75
2023/03/23 00:51:18;;;;;;;6.53;2.55;;;11.50;99.90;;;;;;5050555;28;20078;-73
2023/03/23 00:53:45;;;;;;;3.88;2.22;;;11.50;99.90;;;;;;5043247;28;20041;-74
2023/03/23 00:56:10;;;;;;;4.68;2.22;;;11.60;99.90;;;;;;5045493;28;20029;-71
2023/03/23 00:58:36;;;;;;;7.90;3.58;;;11.60;99.90;;;;;;5046652;28;20056;-72
2023/03/23 01:01:03;;;;;;;5.88;3.00;;;11.30;99.90;;;;;;5049698;28;20029;-75
2023/03/23 01:03:29;;;;;;;5.25;2.58;;;10.90;99.90;;;;;;5035206;28;20391;-72
2023/03/23 01:05:55;;;;;;;6.97;2.97;;;10.90;99.90;;;;;;5042795;28;20090;-67
2023/03/23 01:08:22;;;;;;;6.20;2.42;;;11.00;99.90;;;;;;5060566;28;20028;-74
2023/03/23 01:10:49;;;;;;;4.45;2.40;;;11.10;99.90;;;;;;5050426;28;20492;-73
2023/03/23 01:13:15;;;;;;;5.82;3.20;;;11.20;99.90;;;;;;5051142;28;20021;-74
2023/03/23 01:15:41;;;;;;;4.63;2.70;;;11.20;99.90;;;;;;5045911;28;20039;-71
2023/03/23 01:18:08;;;;;;;6.32;2.53;;;11.20;99.90;;;;;;5044376;28;20106;-74
2023/03/23 01:20:35;;;;;;;6.38;2.70;;;11.30;99.90;;;;;;5042775;28;20134;-74
2023/03/23 01:23:01;;;;;;;5.93;2.95;;;11.30;99.90;;;;;;5050179;28;20032;-73
2023/03/23 01:25:29;;;;;;;6.13;2.60;;;11.30;99.90;;;;;;5049603;28;20481;-74
2023/03/23 01:27:55;;;;;;;5.05;2.70;;;11.30;99.90;;;;;;5054977;28;20396;-67
2023/03/23 01:30:21;;;;;;;4.13;2.60;;;11.40;99.90;;;;;;5052822;28;20041;-71
2023/03/23 01:32:46;;;;;;;6.93;2.50;;;11.30;99.90;;;;;;5043637;28;20497;-72
2023/03/23 01:35:13;;;;;;;5.70;2.53;;;11.30;99.90;;;;;;5046516;28;20025;-73
2023/03/23 01:37:39;;;;;;;4.68;2.75;;;11.40;99.90;;;;;;5055204;28;20032;-72
2023/03/23 01:40:06;;;;;;;6.28;2.65;;;11.40;99.90;;;;;;5044129;28;20106;-74
2023/03/23 01:42:35;;;;;;;7.45;2.80;;;11.40;99.90;;;;;;5057883;28;20033;-74
2023/03/23 01:45:19;;;;;;;4.57;2.90;;;11.40;99.90;;;;;;5054605;28;20047;-73
2023/03/23 01:47:49;;;;;;;5.63;2.70;;;11.40;99.90;;;;;;5053161;28;20031;-75
2023/03/23 01:50:15;;;;;;;7.47;2.90;;;11.40;99.90;;;;;;5053437;28;20129;-72
2023/03/23 01:52:41;;;;;;;4.68;2.45;;;11.40;99.90;;;;;;5049800;28;20045;-74
2023/03/23 01:55:07;;;;;;;6.35;3.00;;;11.40;99.90;;;;;;5047883;28;20024;-74
2023/03/23 01:57:34;;;;;;;4.25;2.50;;;11.30;99.90;;;;;;5044880;28;20939;-73
2023/03/23 02:00:16;;;;;;;7.18;2.83;;;11.30;99.90;;;;;;5042155;28;20488;-66
2023/03/23 02:02:47;;;;;;;4.97;2.70;;;11.30;99.90;;;;;;5030451;28;20056;-70
2023/03/23 02:05:24;;;;;;;6.43;3.20;;;11.30;99.90;;;;;;5045297;28;20036;-73
2023/03/23 02:07:51;;;;;;;5.80;2.53;;;11.20;99.90;;;;;;5049874;28;20051;-74
2023/03/23 02:10:17;;;;;;;5.97;3.20;;;11.10;99.90;;;;;;5033794;28;20226;-74
2023/03/23 02:12:43;;;;;;;5.57;3.35;;;11.10;99.90;;;;;;5053810;28;20553;-74
2023/03/23 02:15:09;;;;;;;9.05;2.92;;;11.00;99.90;;;;;;5050407;28;20028;-73
2023/03/23 02:17:59;;;;;;;6.13;2.75;;;10.80;99.90;;;;;;5054325;28;20051;-74
2023/03/23 02:20:30;;;;;;;9.97;2.90;;;10.80;99.90;;;;;;5046282;28;20049;-74
2023/03/23 02:23:07;;;;;;;7.07;2.78;;;10.70;99.90;;;;;;5057207;28;20029;-74
2023/03/23 02:25:48;;;;;;;4.65;2.40;;;10.70;99.90;;;;;;5047109;28;20028;-73
2023/03/23 02:28:19;;;;;;;;;;;10.80;99.90;;;;;;5048867;28;20181;-75
2023/03/23 02:31:01;;;;;;;4.30;2.63;;;10.80;99.90;;;;;;5055263;28;19909;-74
2023/03/23 02:33:36;;;;;;;6.75;3.03;;;10.80;99.90;;;;;;5048211;28;20548;-73
2023/03/23 02:36:05;;;;;;;5.32;2.67;;;10.90;99.90;;;;;;5051556;28;20037;-68
2023/03/23 02:38:57;;;;;;;6.07;3.08;;;10.90;99.90;;;;;;5050405;28;20025;-74
2023/03/23 02:41:28;;;;;;;8.10;3.22;;;10.90;99.90;;;;;;5036424;28;20051;-74
2023/03/23 02:43:56;;;;;;;9.00;3.22;;;10.90;99.90;;;;;;5058117;28;20047;-74
2023/03/23 02:46:22;;;;;;;5.45;2.80;;;10.90;99.90;;;;;;5056462;28;20134;-72
2023/03/23 02:48:51;;;;;;;5.45;2.95;;;10.90;99.90;;;;;;5055993;28;20044;-74
2023/03/23 02:51:20;;;;;;;7.05;3.15;;;10.80;99.90;;;;;;5052810;28;20101;-71
2023/03/23 02:53:47;;;;;;;5.68;3.10;;;10.80;99.90;;;;;;5054950;28;20510;-72
2023/03/23 02:56:14;;;;;;;7.57;3.08;;;10.80;99.90;;;;;;5051800;28;20025;-73
2023/03/23 02:58:40;;;;;;;6.25;3.45;;;10.80;99.90;;;;;;5044271;28;20143;-75
2023/03/23 03:01:35;;;;;;;7.47;2.78;;;10.70;99.90;;;;;;5045095;28;20468;-73
2023/03/23 03:04:14;;;;;;;7.70;3.10;;;10.70;99.90;;;;;;5035518;28;20104;-67
2023/03/23 03:07:04;;;;;;;7.60;3.80;;;10.60;99.90;;;;;;5044951;28;20041;-75
2023/03/23 03:09:51;;;;;;;10.25;4.30;;;10.50;99.90;;;;;;5056765;28;20452;-74
2023/03/23 03:12:36;;;;;;;11.98;4.68;;;10.40;99.90;;;;;;5044711;28;20963;-74
2023/03/23 03:15:31;;;;;;;8.60;4.60;;;10.20;99.90;;;;;;5041093;28;20033;-67
2023/03/23 03:18:40;;;;;;;7.88;3.90;;;10.10;99.90;;;;;;5053195;28;20048;-73
2023/03/23 03:21:10;;;;;;;9.98;3.88;;;10.10;99.90;;;;;;4934925;28;20063;-74
2023/03/23 03:23:37;;;;;;;7.03;3.60;;;10.00;99.90;;;;;;5020095;28;20049;-72
2023/03/23 03:26:04;;;;;;;8.95;3.97;;;10.10;99.90;;;;;;5042926;28;20122;-67
2023/03/23 03:28:32;;;;;;;6.65;3.40;;;10.10;99.90;;;;;;5051002;28;20029;-74
2023/03/23 03:31:03;;;;;;;6.65;3.80;;;10.20;99.90;;;;;;5049411;28;20033;-73
2023/03/23 03:33:31;;;;;;;6.45;3.35;;;10.30;99.90;;;;;;5057912;28;20033;-72
2023/03/23 03:36:00;;;;;;;7.65;3.55;;;10.30;99.90;;;;;;5039672;28;20076;-72
2023/03/23 03:38:27;;;;;;;6.63;3.75;;;10.30;99.90;;;;;;5038489;28;20037;-75
2023/03/23 03:40:56;;;;;;;8.18;3.42;;;10.20;99.90;;;;;;5052182;28;20083;-74
2023/03/23 03:43:21;;;;;;;16.15;3.15;;;10.20;99.90;;;;;;5057969;28;20064;-75
2023/03/23 03:45:47;;;;;;;6.88;3.33;;;10.20;99.90;;;;;;5041155;28;20056;-74
2023/03/23 03:48:13;;;;;;;5.90;3.30;;;10.30;99.90;;;;;;5055878;28;20389;-74
2023/03/23 03:50:38;;;;;;;5.13;2.75;;;10.40;99.90;;;;;;5056764;28;20103;-72
2023/03/23 03:53:05;;;;;;;7.00;2.92;;;10.50;99.90;;;;;;5054230;28;20047;-69
2023/03/23 03:55:35;;;;;;;4.60;2.40;;;10.70;99.90;;;;;;5037594;28;20396;-76
2023/03/23 03:58:02;;;;;;;7.28;2.92;;;10.80;99.90;;;;;;5049541;28;21091;-74
2023/03/23 04:00:28;;;;;;;8.18;3.33;;;10.90;99.90;;;;;;5040016;28;20033;-74
2023/03/23 04:02:54;;;;;;;6.38;3.70;;;11.00;99.90;;;;;;5055452;28;20385;-75
2023/03/23 04:05:24;;;;;;;7.18;3.38;;;10.90;99.90;;;;;;5052181;28;20056;-74
2023/03/23 04:07:51;;;;;;;8.40;3.03;;;10.70;99.90;;;;;;5070725;28;20032;-75
2023/03/23 04:10:21;;;;;;;4.47;2.55;;;10.70;99.90;;;;;;5069048;28;20112;-73
2023/03/23 04:12:47;;;;;;;5.72;2.60;;;10.80;99.90;;;;;;5063096;28;20485;-72
2023/03/23 04:15:13;;;;;;;4.85;2.50;;;10.90;99.90;;;;;;5060424;28;20060;-74
2023/03/23 04:17:40;;;;;;;8.45;2.70;;;11.00;99.90;;;;;;5060388;28;20478;-74
2023/03/23 04:20:08;;;;;;;8.43;2.50;;;11.10;99.90;;;;;;5059044;28;20041;-68
2023/03/23 04:22:34;;;;;;;4.00;2.35;;;11.40;99.90;;;;;;5061150;28;20041;-75
2023/03/23 04:25:03;;;;;;;8.55;3.15;;;11.40;99.90;;;;;;5068952;28;20358;-75
2023/03/23 04:27:29;;;;;;;6.68;2.33;;;11.40;99.90;;;;;;5056114;28;20504;-71
2023/03/23 04:29:58;;;;;;;5.07;2.40;;;11.30;99.90;;;;;;5064039;28;20029;-75
2023/03/23 04:32:28;;;;;;;5.28;2.33;;;11.40;99.90;;;;;;5055244;28;20039;-74
2023/03/23 04:34:57;;;;;;;7.85;2.28;;;11.50;99.90;;;;;;5067458;28;20060;-74
2023/03/23 04:37:28;;;;;;;4.47;2.17;;;11.60;99.90;;;;;;5068023;28;20127;-74
2023/03/23 04:40:00;;;;;;;4.75;2.10;;;11.80;99.90;;;;;;5059623;28;20536;-75
2023/03/23 04:42:30;;;;;;;6.90;2.88;;;12.00;99.90;;;;;;5057734;28;20028;-73
2023/03/23 04:44:56;;;;;;;4.93;2.10;;;12.10;99.90;;;;;;5058066;28;20025;-74
2023/03/23 04:47:23;;;;;;;4.03;2.10;;;12.30;99.90;;;;;;5046958;28;20084;-75
2023/03/23 04:49:48;;;;;;;4.50;1.90;;;12.50;99.90;;;;;;5060007;28;20064;-72
2023/03/23 04:52:14;;;;;;;3.72;1.98;;;12.60;99.90;;;;;;5061665;28;20114;-73
2023/03/23 04:54:40;;;;;;;3.58;1.73;;;12.80;99.90;;;;;;5067742;28;20033;-76
2023/03/23 04:57:08;;;;;;;3.90;1.90;;;12.80;99.90;;;;;;5059299;28;20035;-70
2023/03/23 04:59:34;;;;;;;5.03;1.70;;;12.80;99.90;;;;;;5068053;28;20067;-75
2023/03/23 05:01:59;;;;;;;5.15;1.75;;;12.80;99.90;;;;;;5048386;28;20048;-74
2023/03/23 05:04:25;;;;;;;5.00;1.80;;;12.70;99.90;;;;;;5064850;28;20822;-74
2023/03/23 05:06:53;;;;;;;5.15;1.90;;;12.80;99.90;;;;;;5067408;28;20035;-73
2023/03/23 05:09:20;;;;;;;4.07;1.65;;;12.80;99.90;;;;;;5053065;28;20025;-72
2023/03/23 05:11:45;;;;;;;4.18;1.90;;;12.70;99.90;;;;;;5066031;28;20024;-73
2023/03/23 05:14:11;;;;;;;7.40;2.05;;;12.80;99.90;;;;;;5062454;28;20029;-69
2023/03/23 05:16:37;;;;;;;3.00;1.80;;;12.90;99.90;;;;;;5045381;28;20108;-75
2023/03/23 05:19:04;;;;;;;3.30;2.15;;;12.90;99.90;;;;;;5064348;28;20028;-73
2023/03/23 05:21:30;;;;;;;4.32;1.77;;;12.80;99.90;;;;;;5057340;28;20044;-74
2023/03/23 05:23:56;;;;;;;6.88;2.03;;;12.80;99.90;;;;;;5052428;28;20028;-75
2023/03/23 05:26:28;;;;;;;5.90;2.00;;;12.70;99.90;;;;;;5059739;28;20094;-72
2023/03/23 05:28:55;;;;;;;3.13;1.77;;;12.60;99.90;;;;;;5059083;28;20075;-69
2023/03/23 05:31:22;;;;;;;3.50;1.80;;;12.60;99.90;;;;;;5056182;28;20056;-74
2023/03/23 05:33:48;;;;;;;3.65;1.73;;;12.70;99.90;;;;;;5058041;28;20568;-74
2023/03/23 05:36:14;;;;;;;5.15;1.80;;;12.70;99.90;;;;;;5064302;28;20082;-74
2023/03/23 05:38:45;;;;;;;3.80;2.00;;;12.70;99.90;;;;;;5050822;28;20057;-74
2023/03/23 05:41:14;;;;;;;3.28;1.80;;;12.80;99.90;;;;;;5056765;28;20029;-68
2023/03/23 05:43:40;;;;;;;4.85;2.13;;;12.80;99.90;;;;;;5056552;28;20398;-75
2023/03/23 05:46:06;;;;;;;4.97;2.05;;;12.80;99.90;;;;;;5063260;28;20526;-74
2023/03/23 05:48:33;;;;;;;6.68;1.80;;;12.80;99.90;;;;;;5066056;28;20044;-74
2023/03/23 05:50:58;;;;;;;3.13;1.80;;;12.80;99.90;;;;;;5057773;28;20047;-74
2023/03/23 05:53:25;;;;;;;3.63;1.98;;;12.80;99.90;;;;;;5056394;28;20037;-74
2023/03/23 05:55:51;;;;;;;5.43;1.90;;;12.70;99.90;;;;;;5060724;28;20033;-74
2023/03/23 05:58:16;;;;;;;3.03;1.67;;;12.70;99.90;;;;;;5053258;28;20536;-71
2023/03/23 06:00:42;;;;;;;4.28;2.17;;;12.60;99.90;;;;;;5049774;28;20065;-74
2023/03/23 06:03:08;;;;;;;5.60;2.33;;;12.50;99.90;;;;;;5051304;28;20048;-72
2023/03/23 06:05:34;;;;;;;4.03;2.40;;;12.50;99.90;;;;;;5057197;28;20025;-74
2023/03/23 06:07:59;;;;;;;4.47;2.30;;;12.50;99.90;;;;;;5056325;28;20071;-75
2023/03/23 06:10:26;;;;;;;6.40;2.22;;;12.50;99.90;;;;;;5065402;28;20095;-72
2023/03/23 06:12:52;;;;;;;11.52;2.55;;;12.60;99.90;;;;;;5050215;28;20040;-74
2023/03/23 06:15:18;;;;;;;6.38;2.28;;;12.70;99.90;;;;;;5051856;28;20041;-74
2023/03/23 06:17:44;;;;;;;4.70;2.50;;;12.70;99.90;;;;;;5057253;28;20036;-73
2023/03/23 06:20:11;;;;;;;5.50;2.22;;;12.70;99.90;;;;;;5060458;28;20048;-70
2023/03/23 06:22:37;;;;;;;4.55;2.53;;;12.70;99.90;;;;;;5064368;28;20114;-72
2023/03/23 06:25:06;;;;;;;4.63;2.15;;;12.60;99.90;;;;;;5058700;28;20032;-73
2023/03/23 06:27:31;;;;;;;4.68;1.85;;;12.70;99.90;;;;;;5060760;28;20045;-73
2023/03/23 06:29:57;;;;;;;8.55;1.95;;;12.80;99.90;;;;;;5046064;28;20109;-74
2023/03/23 06:32:25;;;;;;;3.85;1.90;;;12.80;99.90;;;;;;5046971;28;20083;-72
2023/03/23 06:34:50;;;;;;;6.78;2.00;;;12.80;99.90;;;;;;5056871;28;20106;-72
2023/03/23 06:37:16;;;;;;;5.03;2.30;;;12.90;99.90;;;;;;5060070;28;20453;-73
2023/03/23 06:39:42;;;;;;;4.43;2.10;;;12.90;99.90;;;;;;5060295;28;20037;-72
2023/03/23 06:42:11;;;;;;;4.97;2.25;;;12.90;99.90;;;;;;5056867;28;20465;-74
2023/03/23 06:44:37;;;;;;;6.28;2.30;;;13.10;99.90;;;;;;5055601;28;20031;-74
2023/03/23 06:47:03;;;;;;;5.20;2.13;;;13.20;99.90;;;;;;5059847;28;20393;-73
2023/03/23 06:49:29;;;;;;;4.95;2.10;;;13.20;99.90;;;;;;5043269;28;20085;-74
2023/03/23 06:52:00;;;;;;;8.68;2.42;;;13.20;99.90;;;;;;5048240;28;20985;-73
2023/03/23 06:54:26;;;;;;;6.18;2.45;;;13.20;99.90;;;;;;5050953;28;20055;-73
2023/03/23 06:56:51;;;;;;;9.45;2.30;;;13.30;99.90;;;;;;5061598;28;20036;-76
2023/03/23 06:59:17;;;;;;;6.05;2.40;;;13.40;99.90;;;;;;5056297;28;20359;-69
2023/03/23 07:01:43;;;;;;;3.92;2.30;;;13.40;99.90;;;;;;5048089;28;20378;-75
2023/03/23 07:04:08;;;;;;;4.70;2.35;;;13.40;99.90;;;;;;5057375;28;20039;-74
2023/03/23 07:06:35;;;;;;;4.97;2.20;;;13.30;99.90;;;;;;5056355;28;20032;-75
2023/03/23 07:09:00;;;;;;;7.80;2.50;;;13.40;99.90;;;;;;5047949;28;20796;-75
2023/03/23 07:11:26;;;;;;;6.45;2.22;;;13.60;99.90;;;;;;5052120;28;20029;-73
2023/03/23 07:13:52;;;;;;;6.28;2.42;;;13.60;99.90;;;;;;5048873;28;20036;-75
2023/03/23 07:16:18;;;;;;;8.60;1.90;;;13.60;99.90;;;;;;5054516;28;20626;-70
2023/03/23 07:18:44;;;;;;;5.30;1.92;;;13.60;99.90;;;;;;5060679;28;20041;-75
2023/03/23 07:21:10;;;;;;;7.28;2.28;;;13.70;99.90;;;;;;5055806;28;20134;-76
2023/03/23 07:23:36;;;;;;;3.67;1.92;;;13.70;99.90;;;;;;5056884;28;20079;-73
2023/03/23 07:26:03;;;;;;;5.20;2.33;;;13.80;99.90;;;;;;5051297;28;20112;-74
2023/03/23 07:28:29;;;;;;;8.32;2.30;;;13.80;99.90;;;;;;5053221;28;20025;-75
2023/03/23 07:30:54;;;;;;;5.00;2.30;;;13.90;99.90;;;;;;5054416;28;20154;-76
2023/03/23 07:33:21;;;;;;;3.92;2.10;;;14.00;99.90;;;;;;5052217;28;20108;-76
2023/03/23 07:35:47;;;;;;;5.82;2.20;;;14.00;99.90;;;;;;5058760;28;20033;-72
2023/03/23 07:38:14;;;;;;;6.18;2.05;;;14.00;99.90;;;;;;5055718;28;20029;-75
2023/03/23 07:40:40;;;;;;;6.43;2.17;;;14.10;99.90;;;;;;5045023;28;20175;-77
2023/03/23 07:43:06;;;;;;;5.05;2.28;;;14.10;99.90;;;;;;5062162;28;20514;-74
2023/03/23 07:45:33;;;;;;;4.57;2.30;;;14.10;99.90;;;;;;5053489;28;20389;-78
2023/03/23 07:47:59;;;;;;;5.70;2.42;;;14.20;99.90;;;;;;5059493;28;20105;-75
2023/03/23 07:50:26;;;;;;;4.55;2.20;;;14.20;99.90;;;;;;5047602;28;20440;-75
2023/03/23 07:52:54;;;;;;;3.72;2.10;;;14.20;99.90;;;;;;5055980;28;20044;-76
2023/03/23 07:55:19;;;;;;;4.28;2.30;;;14.20;99.90;;;;;;5061775;28;20033;-74
2023/03/23 07:57:49;;;;;;;5.03;2.50;;;14.20;99.90;;;;;;5055879;28;20043;-75
2023/03/23 08:00:23;;;;;;;7.38;2.38;;;14.20;99.90;;;;;;5048717;28;20131;-75
2023/03/23 08:02:52;;;;;;;7.32;2.33;;;14.20;99.90;;;;;;5045594;28;20634;-76
2023/03/23 08:05:20;;;;;;;4.63;2.42;;;14.20;99.90;;;;;;5055733;28;20151;-71
2023/03/23 08:07:47;;;;;;;5.38;2.35;;;14.20;99.90;;;;;;5054891;28;20029;-74
2023/03/23 08:10:14;;;;;;;6.25;2.40;;;14.10;99.90;;;;;;5051950;28;20039;-77
2023/03/23 08:12:42;;;;;;;3.70;2.08;;;14.10;99.90;;;;;;5054859;28;20106;-77
2023/03/23 08:15:12;;;;;;;5.95;2.45;;;14.20;99.90;;;;;;5058553;28;20138;-76
2023/03/23 08:17:40;;;;;;;7.13;2.40;;;14.30;99.90;;;;;;5051403;28;20108;-75
2023/03/23 08:20:09;;;;;;;4.20;2.45;;;14.30;99.90;;;;;;5040945;28;20063;-77
2023/03/23 08:22:35;;;;;;;7.80;2.78;;;14.30;99.90;;;;;;5055203;28;20041;-78
2023/03/23 08:25:03;;;;;;;5.60;2.63;;;14.30;99.90;;;;;;5049619;28;20107;-75
2023/03/23 08:27:29;;;;;;;4.43;2.20;;;14.30;99.90;;;;;;5061585;28;20495;-75
2023/03/23 08:29:54;;;;;;;5.22;2.33;;;14.30;99.90;;;;;;5053786;28;20037;-78
2023/03/23 08:32:20;;;;;;;3.97;2.47;;;14.30;99.90;;;;;;5049235;28;20025;-68
2023/03/23 08:34:46;;;;;;;5.45;2.20;;;14.40;99.90;;;;;;5058630;28;20040;-72
2023/03/23 08:37:13;;;;;;;5.15;2.08;;;14.30;99.90;;;;;;5062194;28;20751;-72
2023/03/23 08:39:38;;;;;;;5.80;2.58;;;14.30;99.90;;;;;;5059731;28;20139;-72
2023/03/23 08:42:04;;;;;;;5.07;2.47;;;14.30;99.90;;;;;;5060340;28;20108;-72
2023/03/23 08:44:30;;;;;;;5.15;2.30;;;14.30;99.90;;;;;;5049764;28;20032;-73
2023/03/23 08:46:56;;;;;;;6.45;2.20;;;14.40;99.90;;;;;;5051408;28;20524;-70
2023/03/23 08:49:22;;;;;;;4.43;2.20;;;14.30;99.90;;;;;;5051754;28;20029;-67
2023/03/23 08:51:48;;;;;;;5.82;2.35;;;14.40;99.90;;;;;;5058489;28;20041;-72
2023/03/23 08:54:14;;;;;;;4.13;2.20;;;14.40;99.90;;;;;;5050270;28;20033;-72
2023/03/23 08:56:40;;;;;;;4.88;2.20;;;14.40;99.90;;;;;;5060439;28;20037;-72
2023/03/23 08:59:06;;;;;;;5.97;2.20;;;14.50;99.90;;;;;;5056564;28;20116;-72
2023/03/23 09:01:32;;;;;;;8.10;2.47;;;14.50;99.90;;;;;;5058362;28;20037;-71
2023/03/23 09:03:59;;;;;;;2.92;1.95;;;14.60;99.90;;;;;;5059003;28;20043;-71
2023/03/23 09:06:25;;;;;;;4.55;2.60;;;14.70;99.90;;;;;;5058026;28;20488;-72
2023/03/23 09:08:51;;;;;;;4.63;2.78;;;14.70;99.90;;;;;;5050124;28;20474;-72
2023/03/23 09:11:17;;;;;;;6.07;1.88;;;14.80;99.90;;;;;;5058090;28;20036;-73
2023/03/23 09:13:43;;;;;;;5.88;2.75;;;14.90;99.90;;;;;;5058731;28;20799;-71
2023/03/23 09:16:10;;;;;;;3.97;2.00;;;14.90;99.90;;;;;;5056829;28;20028;-71
2023/03/23 09:18:36;;;;;;;5.15;2.33;;;14.90;99.90;;;;;;5059407;28;20035;-71
2023/03/23 09:21:03;;;;;;;8.82;2.67;;;14.90;99.90;;;;;;5060223;28;20660;-73
2023/03/23 09:23:29;;;;;;;6.80;2.70;;;15.00;99.90;;;;;;5055583;28;20032;-72
2023/03/23 09:25:55;;;;;;;6.00;2.88;;;15.00;99.90;;;;;;5051008;28;20086;-74
2023/03/23 09:28:21;;;;;;;5.38;2.30;;;15.10;99.90;;;;;;5058037;28;20029;-68
2023/03/23 09:30:47;;;;;;;4.15;2.33;;;15.10;99.90;;;;;;5060031;28;20029;-71
2023/03/23 09:33:14;;;;;;;5.70;2.25;;;15.20;99.90;;;;;;5068825;28;20032;-73
2023/03/23 09:35:42;;;;;;;6.47;2.40;;;15.20;99.90;;;;;;5060341;28;20368;-73
2023/03/23 09:38:12;;;;;;;5.80;2.40;;;15.20;99.90;;;;;;5064741;28;20037;-72
2023/03/23 09:40:41;;;;;;;4.95;2.80;;;15.10;99.90;;;;;;5066449;28;20093;-71
2023/03/23 09:43:32;;;;;;;4.50;2.35;;;15.00;99.90;;;;;;5056073;28;20029;-73
2023/03/23 09:46:49;;;;;;;6.35;2.60;;;14.80;99.90;;;;;;5045895;28;20028;-72
2023/03/23 09:49:26;;;;;;;7.05;2.45;;;14.80;99.90;;;;;;5002492;28;20037;-73
2023/03/23 09:51:58;;;;;;;7.75;2.88;;;14.70;99.90;;;;;;5058773;28;20124;-72
2023/03/23 09:54:30;;;;;;;6.97;2.35;;;14.70;99.90;;;;;;5047960;28;20032;-68
2023/03/23 09:56:58;;;;;;;3.17;2.22;;;14.70;99.90;;;;;;5057409;28;20033;-71
2023/03/23 09:59:36;;;;;;;5.38;2.40;;;14.70;99.90;;;;;;5043081;28;20036;-68
2023/03/23 10:02:19;;;;;;;7.25;2.20;;;14.70;99.90;;;;;;5061482;28;20029;-72
2023/03/23 10:04:54;;;;;;;4.28;2.30;;;14.60;99.90;;;;;;5050411;28;20039;-72
2023/03/23 10:07:22;;;;;;;4.50;2.22;;;14.70;99.90;;;;;;5055606;28;20040;-71
2023/03/23 10:09:53;;;;;;;4.22;2.17;;;14.60;99.90;;;;;;5065089;28;20131;-71
2023/03/23 10:12:29;;;;;;;4.70;2.22;;;14.60;99.90;;;;;;5049648;28;20043;-73
2023/03/23 10:15:05;;;;;;;8.52;2.40;;;14.60;99.90;;;;;;5067905;28;20063;-72
2023/03/23 10:17:30;;;;;;;4.55;2.30;;;14.60;99.90;;;;;;5059515;28;20060;-73
2023/03/23 10:20:15;;;;;;;5.90;2.40;;;14.60;99.90;;;;;;5052686;28;20524;-71
2023/03/23 10:23:05;;;;;;;5.50;2.53;;;14.60;99.90;;;;;;5057550;28;20033;-72
2023/03/23 10:25:36;;;;;;;13.90;2.40;;;14.60;99.90;;;;;;5049740;28;20430;-73
2023/03/23 10:28:12;;;;;;;7.57;2.95;;;14.50;99.90;;;;;;5053662;28;20119;-73
2023/03/23 10:30:56;;;;;;;5.00;2.83;;;14.50;99.90;;;;;;5055988;28;20758;-73
2023/03/23 10:33:29;;;;;;;8.52;3.10;;;14.50;99.90;;;;;;5063348;28;20029;-72
2023/03/23 10:36:01;;;;;;;11.30;2.20;;;14.50;99.90;;;;;;5057492;28;20103;-73
2023/03/23 10:38:36;;;;;;;3.80;2.22;;;14.50;99.90;;;;;;5062482;28;20059;-68
2023/03/23 10:41:09;;;;;;;4.47;2.40;;;14.50;99.90;;;;;;5058004;28;20418;-70
2023/03/23 10:43:35;;;;;;;6.07;2.75;;;14.50;99.90;;;;;;5047520;28;20044;-72
2023/03/23 10:46:10;;;;;;;4.70;2.33;;;14.50;99.90;;;;;;5064869;28;20052;-72
2023/03/23 10:48:38;;;;;;;9.43;2.28;;;14.50;99.90;;;;;;5056386;28;20043;-71
2023/03/23 10:51:08;;;;;;;4.18;2.50;;;14.40;99.90;;;;;;5057219;28;20537;-73
2023/03/23 10:53:47;;;;;;;3.10;2.03;;;14.50;99.90;;;;;;5048212;28;20037;-72
2023/03/23 10:56:36;;;;;;;10.32;2.67;;;14.40;99.90;;;;;;5068227;28;20029;-72
2023/03/23 10:59:13;;;;;;;5.88;2.40;;;14.40;99.90;;;;;;5057065;28;20036;-73
2023/03/23 11:01:42;;;;;;;4.68;2.30;;;14.40;99.90;;;;;;5057394;28;20458;-71
2023/03/23 11:04:17;;;;;;;4.20;2.40;;;14.40;99.90;;;;;;5048695;28;20033;-71
2023/03/23 11:06:49;;;;;;;6.60;2.55;;;14.40;99.90;;;;;;5062786;28;20136;-72
2023/03/23 11:09:17;;;;;;;6.35;2.40;;;14.50;99.90;;;;;;5056451;28;20432;-72
2023/03/23 11:11:50;;;;;;;3.17;2.17;;;14.60;99.90;;;;;;5056163;28;20040;-71
2023/03/23 11:14:20;;;;;;;3.40;1.95;;;14.50;99.90;;;;;;5067253;28;20032;-72
2023/03/23 11:16:55;;;;;;;4.57;2.05;;;14.60;99.90;;;;;;5065319;28;20029;-71
2023/03/23 11:19:32;;;;;;;5.03;2.40;;;14.70;99.90;;;;;;5062461;28;20071;-72
2023/03/23 11:22:04;;;;;;;4.40;2.05;;;14.70;99.90;;;;;;5058318;28;20067;-71
2023/03/23 11:24:36;;;;;;;5.32;2.20;;;14.80;99.90;;;;;;5052236;28;20029;-68
2023/03/23 11:27:06;;;;;;;4.70;1.88;;;14.80;99.90;;;;;;5059975;28;20068;-72
2023/03/23 11:29:33;;;;;;;5.07;2.05;;;14.90;99.90;;;;;;5062776;28;20067;-72
2023/03/23 11:31:59;;;;;;;7.70;2.55;;;15.00;99.90;;;;;;5064782;28;20094;-72
2023/03/23 11:34:35;;;;;;;3.97;2.05;;;15.00;99.90;;;;;;5049456;28;20033;-73
2023/03/23 11:37:05;;;;;;;4.70;2.20;;;15.00;99.90;;;;;;5049650;28;20037;-70
2023/03/23 11:39:33;;;;;;;4.93;2.20;;;15.00;99.90;;;;;;5055740;28;20090;-68
2023/03/23 11:42:02;;;;;;;5.70;2.20;;;15.00;99.90;;;;;;5055877;28;20040;-71
2023/03/23 11:44:41;;;;;;;3.92;2.10;;;15.10;99.90;;;;;;5056099;28;20362;-69
2023/03/23 11:47:35;;;;;;;4.55;2.00;;;15.40;99.90;;;;;;5055446;28;20405;-71
2023/03/23 11:50:05;;;;;;;9.38;2.40;;;15.50;99.90;;;;;;5058899;28;20025;-72
2023/03/23 11:53:01;;;;;;;7.70;2.55;;;15.60;99.90;;;;;;5054990;28;20083;-69
2023/03/23 11:55:55;;;;;;;3.83;2.20;;;15.60;99.90;;;;;;5059087;28;20029;-71
2023/03/23 11:58:21;;;;;;;4.50;2.45;;;15.60;99.90;;;;;;5057748;28;20063;-72
2023/03/23 12:00:58;;;;;;;3.80;2.40;;;15.70;99.90;;;;;;5061206;28;20041;-71
2023/03/23 12:03:56;;;;;;;5.10;2.58;;;15.80;99.90;;;;;;5046260;28;20040;-73
2023/03/23 12:06:54;;;;;;;4.20;2.38;;;15.80;99.90;;;;;;5044894;28;20794;-72
2023/03/23 12:09:28;;;;;;;4.20;2.53;;;15.70;99.90;;;;;;5036386;28;20052;-71
2023/03/23 12:12:03;;;;;;;3.75;2.17;;;15.60;99.90;;;;;;5056357;28;20531;-72
2023/03/23 12:15:09;;;;;;;6.78;2.47;;;15.60;99.90;;;;;;5061133;28;20105;-72
2023/03/23 12:18:02;;;;;;;5.57;2.72;;;15.60;99.90;;;;;;5061600;28;20116;-72
2023/03/23 12:21:04;;;;;;;5.43;2.50;;;15.60;99.90;;;;;;5068839;28;20044;-72
2023/03/23 12:23:41;;;;;;;3.60;2.25;;;15.60;99.90;;;;;;5058801;28;20032;-72
2023/03/23 12:26:44;;;;;;;5.10;2.20;;;15.60;99.90;;;;;;5057109;28;20035;-72
2023/03/23 12:29:43;;;;;;;4.75;2.65;;;15.60;99.90;;;;;;5060933;28;20044;-72
2023/03/23 12:32:37;;;;;;;6.47;2.58;;;15.80;99.90;;;;;;5051774;28;20128;-72
2023/03/23 12:35:12;;;;;;;3.75;2.45;;;15.90;99.90;;;;;;5059425;28;20147;-73
2023/03/23 12:38:15;;;;;;;5.03;2.67;;;15.80;99.90;;;;;;5058639;28;20033;-72
2023/03/23 12:41:07;;;;;;;4.25;2.55;;;15.90;99.90;;;;;;5039171;28;20044;-72
2023/03/23 12:44:03;;;;;;;5.97;2.90;;;15.90;99.90;;;;;;5059205;28;20480;-69
2023/03/23 12:46:44;;;;;;;6.30;2.88;;;15.90;99.90;;;;;;5059016;28;20033;-72
2023/03/23 12:49:31;;;;;;;4.90;2.50;;;16.00;99.90;;;;;;5067897;28;20090;-72
2023/03/23 12:52:22;;;;;;;3.75;2.17;;;16.10;99.90;;;;;;5056155;28;20036;-71
2023/03/23 12:55:00;;;;;;;3.10;2.05;;;15.90;99.90;;;;;;5068776;28;20028;-73
2023/03/23 12:57:39;;;;;;;6.70;1.95;;;15.90;99.90;;;;;;5060793;28;20067;-73
2023/03/23 13:00:16;;;;;;;6.88;2.80;;;15.90;99.90;;;;;;5057056;28;20107;-72
2023/03/23 13:03:17;;;;;;;5.90;2.60;;;15.90;99.90;;;;;;5059803;28;20679;-72
2023/03/23 13:05:55;;;;;;;6.07;2.30;;;15.80;99.90;;;;;;5054004;28;20033;-71
2023/03/23 13:08:51;;;;;;;7.82;2.50;;;15.80;99.90;;;;;;5052298;28;20042;-73